sensor_id;sensor_type;location;lat;lon;timestamp;temperature;humidity
49385;DHT22;36795;45.028;38.968;2023-05-20T00:01:16;20.50;48.80
49385;DHT22;36795;45.028;38.968;2023-05-20T00:04:02;20.40;49.00
49385;DHT22;36795;45.028;38.968;2023-05-20T00:06:47;20.40;49.20
49385;DHT22;36795;45.028;38.968;2023-05-20T00:09:37;20.40;49.30
49385;DHT22;36795;45.028;38.968;2023-05-20T00:12:23;20.40;49.50
49385;DHT22;36795;45.028;38.968;2023-05-20T00:15:09;20.40;49.70
49385;DHT22;36795;45.028;38.968;2023-05-20T00:17:56;20.40;49.90
49385;DHT22;36795;45.028;38.968;2023-05-20T00:20:42;20.30;50.30
49385;DHT22;36795;45.028;38.968;2023-05-20T00:23:28;20.30;50.60
49385;DHT22;36795;45.028;38.968;2023-05-20T00:26:14;20.30;50.80
49385;DHT22;36795;45.028;38.968;2023-05-20T00:29:03;20.30;51.00
49385;DHT22;36795;45.028;38.968;2023-05-20T00:31:49;20.20;51.10
49385;DHT22;36795;45.028;38.968;2023-05-20T00:34:36;20.20;51.40
49385;DHT22;36795;45.028;38.968;2023-05-20T00:37:22;20.20;51.60
49385;DHT22;36795;45.028;38.968;2023-05-20T00:40:09;20.20;51.90
49385;DHT22;36795;45.028;38.968;2023-05-20T00:42:56;20.10;52.40
49385;DHT22;36795;45.028;38.968;2023-05-20T00:45:42;20.10;52.50
49385;DHT22;36795;45.028;38.968;2023-05-20T00:48:35;20.10;52.80
49385;DHT22;36795;45.028;38.968;2023-05-20T00:51:24;20.00;53.00
49385;DHT22;36795;45.028;38.968;2023-05-20T00:54:11;20.00;53.30
49385;DHT22;36795;45.028;38.968;2023-05-20T00:56:57;20.00;53.40
49385;DHT22;36795;45.028;38.968;2023-05-20T00:59:44;20.00;53.30
49385;DHT22;36795;45.028;38.968;2023-05-20T01:02:30;20.10;53.50
49385;DHT22;36795;45.028;38.968;2023-05-20T01:05:17;20.10;53.80
49385;DHT22;36795;45.028;38.968;2023-05-20T01:08:03;20.10;53.70
49385;DHT22;36795;45.028;38.968;2023-05-20T01:10:57;20.00;53.80
49385;DHT22;36795;45.028;38.968;2023-05-20T01:13:53;20.10;54.00
49385;DHT22;36795;45.028;38.968;2023-05-20T01:16:41;20.10;54.00
49385;DHT22;36795;45.028;38.968;2023-05-20T01:19:37;20.10;54.20
49385;DHT22;36795;45.028;38.968;2023-05-20T01:22:27;20.00;54.40
49385;DHT22;36795;45.028;38.968;2023-05-20T01:25:13;20.10;54.40
49385;DHT22;36795;45.028;38.968;2023-05-20T01:27:59;20.10;54.30
49385;DHT22;36795;45.028;38.968;2023-05-20T01:30:50;20.10;54.60
49385;DHT22;36795;45.028;38.968;2023-05-20T01:33:38;20.10;54.70
49385;DHT22;36795;45.028;38.968;2023-05-20T01:36:25;20.00;54.80
49385;DHT22;36795;45.028;38.968;2023-05-20T01:39:13;20.00;54.80
49385;DHT22;36795;45.028;38.968;2023-05-20T01:42:00;20.00;55.00
49385;DHT22;36795;45.028;38.968;2023-05-20T01:44:47;20.00;55.10
49385;DHT22;36795;45.028;38.968;2023-05-20T01:47:33;20.00;55.10
49385;DHT22;36795;45.028;38.968;2023-05-20T01:50:20;20.00;55.30
49385;DHT22;36795;45.028;38.968;2023-05-20T01:53:06;20.00;55.30
49385;DHT22;36795;45.028;38.968;2023-05-20T01:55:54;20.00;55.30
49385;DHT22;36795;45.028;38.968;2023-05-20T01:58:40;20.00;55.30
49385;DHT22;36795;45.028;38.968;2023-05-20T02:01:27;20.00;55.40
49385;DHT22;36795;45.028;38.968;2023-05-20T02:04:13;20.00;55.30
49385;DHT22;36795;45.028;38.968;2023-05-20T02:06:59;20.10;55.30
49385;DHT22;36795;45.028;38.968;2023-05-20T02:09:46;20.10;55.30
49385;DHT22;36795;45.028;38.968;2023-05-20T02:12:32;20.10;55.40
49385;DHT22;36795;45.028;38.968;2023-05-20T02:15:18;20.10;55.40
49385;DHT22;36795;45.028;38.968;2023-05-20T02:18:04;20.10;55.50
49385;DHT22;36795;45.028;38.968;2023-05-20T02:20:51;20.10;55.40
49385;DHT22;36795;45.028;38.968;2023-05-20T02:23:39;20.20;55.30
49385;DHT22;36795;45.028;38.968;2023-05-20T02:26:24;20.20;55.20
49385;DHT22;36795;45.028;38.968;2023-05-20T02:29:10;20.30;55.10
49385;DHT22;36795;45.028;38.968;2023-05-20T02:31:56;20.30;55.00
49385;DHT22;36795;45.028;38.968;2023-05-20T02:34:43;20.40;54.90
49385;DHT22;36795;45.028;38.968;2023-05-20T02:37:28;20.40;54.80
49385;DHT22;36795;45.028;38.968;2023-05-20T02:40:15;20.40;54.80
49385;DHT22;36795;45.028;38.968;2023-05-20T02:43:01;20.40;54.70
49385;DHT22;36795;45.028;38.968;2023-05-20T02:45:47;20.50;54.80
49385;DHT22;36795;45.028;38.968;2023-05-20T02:48:33;20.50;54.70
49385;DHT22;36795;45.028;38.968;2023-05-20T02:51:20;20.50;54.60
49385;DHT22;36795;45.028;38.968;2023-05-20T02:54:06;20.60;54.60
49385;DHT22;36795;45.028;38.968;2023-05-20T02:56:52;20.60;54.50
49385;DHT22;36795;45.028;38.968;2023-05-20T02:59:38;20.70;54.40
49385;DHT22;36795;45.028;38.968;2023-05-20T03:02:24;20.70;54.40
49385;DHT22;36795;45.028;38.968;2023-05-20T03:05:10;20.70;54.30
49385;DHT22;36795;45.028;38.968;2023-05-20T03:07:57;20.70;54.30
49385;DHT22;36795;45.028;38.968;2023-05-20T03:10:42;20.70;54.10
49385;DHT22;36795;45.028;38.968;2023-05-20T03:13:29;20.80;54.10
49385;DHT22;36795;45.028;38.968;2023-05-20T03:16:16;20.80;54.20
49385;DHT22;36795;45.028;38.968;2023-05-20T03:19:03;20.90;54.20
49385;DHT22;36795;45.028;38.968;2023-05-20T03:21:49;20.90;54.20
49385;DHT22;36795;45.028;38.968;2023-05-20T03:24:36;20.90;54.10
49385;DHT22;36795;45.028;38.968;2023-05-20T03:27:22;20.90;54.20
49385;DHT22;36795;45.028;38.968;2023-05-20T03:30:11;20.90;54.40
49385;DHT22;36795;45.028;38.968;2023-05-20T03:32:58;20.90;54.30
49385;DHT22;36795;45.028;38.968;2023-05-20T03:35:44;21.00;54.20
49385;DHT22;36795;45.028;38.968;2023-05-20T03:38:32;21.00;54.70
49385;DHT22;36795;45.028;38.968;2023-05-20T03:41:18;21.00;54.10
49385;DHT22;36795;45.028;38.968;2023-05-20T03:44:05;21.10;54.10
49385;DHT22;36795;45.028;38.968;2023-05-20T03:46:51;21.10;54.10
49385;DHT22;36795;45.028;38.968;2023-05-20T03:49:37;21.20;53.90
49385;DHT22;36795;45.028;38.968;2023-05-20T03:52:25;21.30;53.80
49385;DHT22;36795;45.028;38.968;2023-05-20T03:55:11;21.30;53.80
49385;DHT22;36795;45.028;38.968;2023-05-20T03:57:57;21.40;53.70
49385;DHT22;36795;45.028;38.968;2023-05-20T04:00:43;21.40;53.70
49385;DHT22;36795;45.028;38.968;2023-05-20T04:03:30;21.50;53.60
49385;DHT22;36795;45.028;38.968;2023-05-20T04:06:16;21.60;53.40
49385;DHT22;36795;45.028;38.968;2023-05-20T04:09:02;21.60;53.40
49385;DHT22;36795;45.028;38.968;2023-05-20T04:11:48;21.60;53.30
49385;DHT22;36795;45.028;38.968;2023-05-20T04:14:35;21.70;53.40
49385;DHT22;36795;45.028;38.968;2023-05-20T04:17:20;21.60;53.40
49385;DHT22;36795;45.028;38.968;2023-05-20T04:20:07;21.60;53.50
49385;DHT22;36795;45.028;38.968;2023-05-20T04:22:56;21.60;53.20
49385;DHT22;36795;45.028;38.968;2023-05-20T04:25:43;21.70;53.10
49385;DHT22;36795;45.028;38.968;2023-05-20T04:28:29;21.80;52.80
49385;DHT22;36795;45.028;38.968;2023-05-20T04:31:16;21.80;52.70
49385;DHT22;36795;45.028;38.968;2023-05-20T04:34:03;21.90;52.70
49385;DHT22;36795;45.028;38.968;2023-05-20T04:36:49;21.90;52.40
49385;DHT22;36795;45.028;38.968;2023-05-20T04:39:36;22.00;52.10
49385;DHT22;36795;45.028;38.968;2023-05-20T04:42:24;22.10;52.00
49385;DHT22;36795;45.028;38.968;2023-05-20T04:45:10;22.10;52.00
49385;DHT22;36795;45.028;38.968;2023-05-20T04:47:57;22.20;51.70
49385;DHT22;36795;45.028;38.968;2023-05-20T04:50:42;22.30;51.80
49385;DHT22;36795;45.028;38.968;2023-05-20T04:53:29;22.40;51.30
49385;DHT22;36795;45.028;38.968;2023-05-20T04:56:15;22.40;51.20
49385;DHT22;36795;45.028;38.968;2023-05-20T04:59:02;22.40;51.10
49385;DHT22;36795;45.028;38.968;2023-05-20T05:01:48;22.40;50.70
49385;DHT22;36795;45.028;38.968;2023-05-20T05:04:35;22.40;50.50
49385;DHT22;36795;45.028;38.968;2023-05-20T05:07:21;22.60;50.10
49385;DHT22;36795;45.028;38.968;2023-05-20T05:10:08;22.60;49.90
49385;DHT22;36795;45.028;38.968;2023-05-20T05:12:54;22.70;49.70
49385;DHT22;36795;45.028;38.968;2023-05-20T05:15:40;22.80;49.30
49385;DHT22;36795;45.028;38.968;2023-05-20T05:18:26;22.80;48.80
49385;DHT22;36795;45.028;38.968;2023-05-20T05:21:13;22.90;48.60
49385;DHT22;36795;45.028;38.968;2023-05-20T05:23:59;23.00;48.10
49385;DHT22;36795;45.028;38.968;2023-05-20T05:26:45;23.10;47.80
49385;DHT22;36795;45.028;38.968;2023-05-20T05:29:31;23.20;47.60
49385;DHT22;36795;45.028;38.968;2023-05-20T05:32:17;23.30;47.40
49385;DHT22;36795;45.028;38.968;2023-05-20T05:35:03;23.40;47.10
49385;DHT22;36795;45.028;38.968;2023-05-20T05:37:50;23.40;46.40
49385;DHT22;36795;45.028;38.968;2023-05-20T05:40:36;23.40;46.30
49385;DHT22;36795;45.028;38.968;2023-05-20T05:43:22;23.50;45.60
49385;DHT22;36795;45.028;38.968;2023-05-20T05:46:09;23.50;45.50
49385;DHT22;36795;45.028;38.968;2023-05-20T05:48:56;23.60;44.90
49385;DHT22;36795;45.028;38.968;2023-05-20T05:51:43;23.80;44.70
49385;DHT22;36795;45.028;38.968;2023-05-20T05:54:30;24.00;44.20
49385;DHT22;36795;45.028;38.968;2023-05-20T05:57:15;24.10;43.90
49385;DHT22;36795;45.028;38.968;2023-05-20T06:00:02;24.20;43.80
49385;DHT22;36795;45.028;38.968;2023-05-20T06:02:50;24.30;42.80
49385;DHT22;36795;45.028;38.968;2023-05-20T06:05:38;24.40;42.40
49385;DHT22;36795;45.028;38.968;2023-05-20T06:08:24;24.30;42.50
49385;DHT22;36795;45.028;38.968;2023-05-20T06:11:11;24.20;42.30
49385;DHT22;36795;45.028;38.968;2023-05-20T06:13:58;24.30;42.30
49385;DHT22;36795;45.028;38.968;2023-05-20T06:16:46;24.40;41.50
49385;DHT22;36795;45.028;38.968;2023-05-20T06:19:32;24.50;41.60
49385;DHT22;36795;45.028;38.968;2023-05-20T06:22:18;24.80;41.20
49385;DHT22;36795;45.028;38.968;2023-05-20T06:25:06;24.90;40.50
49385;DHT22;36795;45.028;38.968;2023-05-20T06:27:54;24.90;40.50
49385;DHT22;36795;45.028;38.968;2023-05-20T06:30:41;25.00;40.50
49385;DHT22;36795;45.028;38.968;2023-05-20T06:33:27;25.20;40.10
49385;DHT22;36795;45.028;38.968;2023-05-20T06:36:16;25.30;39.90
49385;DHT22;36795;45.028;38.968;2023-05-20T06:39:03;25.50;39.40
49385;DHT22;36795;45.028;38.968;2023-05-20T06:41:50;25.50;39.10
49385;DHT22;36795;45.028;38.968;2023-05-20T06:44:45;25.60;39.30
49385;DHT22;36795;45.028;38.968;2023-05-20T06:47:31;25.70;38.80
49385;DHT22;36795;45.028;38.968;2023-05-20T06:50:17;25.60;38.70
49385;DHT22;36795;45.028;38.968;2023-05-20T06:53:03;25.60;38.40
49385;DHT22;36795;45.028;38.968;2023-05-20T06:55:53;25.60;38.10
49385;DHT22;36795;45.028;38.968;2023-05-20T06:58:42;25.60;38.20
49385;DHT22;36795;45.028;38.968;2023-05-20T07:01:28;25.70;37.80
49385;DHT22;36795;45.028;38.968;2023-05-20T07:04:15;25.70;37.40
49385;DHT22;36795;45.028;38.968;2023-05-20T07:07:01;25.90;37.60
49385;DHT22;36795;45.028;38.968;2023-05-20T07:09:47;26.00;37.00
49385;DHT22;36795;45.028;38.968;2023-05-20T07:12:34;26.00;37.40
49385;DHT22;36795;45.028;38.968;2023-05-20T07:15:20;26.30;36.80
49385;DHT22;36795;45.028;38.968;2023-05-20T07:18:07;26.40;36.00
49385;DHT22;36795;45.028;38.968;2023-05-20T07:20:52;26.40;35.80
49385;DHT22;36795;45.028;38.968;2023-05-20T07:23:43;26.20;35.60
49385;DHT22;36795;45.028;38.968;2023-05-20T07:26:29;26.10;35.80
49385;DHT22;36795;45.028;38.968;2023-05-20T07:29:18;25.90;36.00
49385;DHT22;36795;45.028;38.968;2023-05-20T07:32:05;25.90;36.20
49385;DHT22;36795;45.028;38.968;2023-05-20T07:34:53;26.10;36.50
49385;DHT22;36795;45.028;38.968;2023-05-20T07:37:38;26.30;36.30
49385;DHT22;36795;45.028;38.968;2023-05-20T07:40:25;26.40;36.10
49385;DHT22;36795;45.028;38.968;2023-05-20T07:43:11;26.30;35.80
49385;DHT22;36795;45.028;38.968;2023-05-20T07:45:58;26.10;36.00
49385;DHT22;36795;45.028;38.968;2023-05-20T07:48:44;26.30;36.50
49385;DHT22;36795;45.028;38.968;2023-05-20T07:51:30;26.70;36.10
49385;DHT22;36795;45.028;38.968;2023-05-20T07:54:17;27.00;35.60
49385;DHT22;36795;45.028;38.968;2023-05-20T07:57:04;27.40;35.20
49385;DHT22;36795;45.028;38.968;2023-05-20T07:59:50;27.70;34.00
49385;DHT22;36795;45.028;38.968;2023-05-20T08:02:38;27.80;33.90
49385;DHT22;36795;45.028;38.968;2023-05-20T08:05:24;27.70;33.90
49385;DHT22;36795;45.028;38.968;2023-05-20T08:08:10;27.90;34.20
49385;DHT22;36795;45.028;38.968;2023-05-20T08:10:59;28.00;34.20
49385;DHT22;36795;45.028;38.968;2023-05-20T08:13:46;28.00;33.90
49385;DHT22;36795;45.028;38.968;2023-05-20T08:16:34;28.30;33.60
49385;DHT22;36795;45.028;38.968;2023-05-20T08:19:20;28.70;33.30
49385;DHT22;36795;45.028;38.968;2023-05-20T08:22:07;29.10;32.90
49385;DHT22;36795;45.028;38.968;2023-05-20T08:24:53;28.90;32.90
49385;DHT22;36795;45.028;38.968;2023-05-20T08:27:39;28.60;33.40
49385;DHT22;36795;45.028;38.968;2023-05-20T08:30:26;28.50;33.40
49385;DHT22;36795;45.028;38.968;2023-05-20T08:33:14;28.30;33.70
49385;DHT22;36795;45.028;38.968;2023-05-20T08:35:59;28.20;33.80
49385;DHT22;36795;45.028;38.968;2023-05-20T08:38:47;28.10;34.10
49385;DHT22;36795;45.028;38.968;2023-05-20T08:41:32;27.90;34.00
49385;DHT22;36795;45.028;38.968;2023-05-20T08:44:20;27.80;34.40
49385;DHT22;36795;45.028;38.968;2023-05-20T08:47:08;27.60;34.10
49385;DHT22;36795;45.028;38.968;2023-05-20T08:49:55;27.40;34.50
49385;DHT22;36795;45.028;38.968;2023-05-20T08:52:45;27.40;34.40
49385;DHT22;36795;45.028;38.968;2023-05-20T08:58:23;27.60;34.50
49385;DHT22;36795;45.028;38.968;2023-05-20T09:01:09;27.80;34.50
49385;DHT22;36795;45.028;38.968;2023-05-20T09:03:55;27.90;34.50
49385;DHT22;36795;45.028;38.968;2023-05-20T09:06:45;28.40;34.40
49385;DHT22;36795;45.028;38.968;2023-05-20T09:09:34;28.80;33.90
49385;DHT22;36795;45.028;38.968;2023-05-20T09:12:21;29.50;33.20
49385;DHT22;36795;45.028;38.968;2023-05-20T09:15:07;30.00;33.10
49385;DHT22;36795;45.028;38.968;2023-05-20T09:17:54;30.20;32.30
49385;DHT22;36795;45.028;38.968;2023-05-20T09:20:40;30.60;31.50
49385;DHT22;36795;45.028;38.968;2023-05-20T09:23:27;30.50;31.50
49385;DHT22;36795;45.028;38.968;2023-05-20T09:26:17;30.40;31.70
49385;DHT22;36795;45.028;38.968;2023-05-20T09:29:03;30.40;32.00
49385;DHT22;36795;45.028;38.968;2023-05-20T09:31:49;30.10;32.20
49385;DHT22;36795;45.028;38.968;2023-05-20T09:34:37;29.90;32.40
49385;DHT22;36795;45.028;38.968;2023-05-20T09:37:25;29.90;32.20
49385;DHT22;36795;45.028;38.968;2023-05-20T09:40:13;30.20;32.40
49385;DHT22;36795;45.028;38.968;2023-05-20T09:43:02;30.50;31.50
49385;DHT22;36795;45.028;38.968;2023-05-20T09:45:49;30.20;30.90
49385;DHT22;36795;45.028;38.968;2023-05-20T09:48:35;29.60;31.30
49385;DHT22;36795;45.028;38.968;2023-05-20T09:51:22;29.40;31.60
49385;DHT22;36795;45.028;38.968;2023-05-20T09:54:09;29.30;31.80
49385;DHT22;36795;45.028;38.968;2023-05-20T09:56:59;29.20;32.30
49385;DHT22;36795;45.028;38.968;2023-05-20T09:59:46;29.30;31.90
49385;DHT22;36795;45.028;38.968;2023-05-20T10:02:33;29.40;32.00
49385;DHT22;36795;45.028;38.968;2023-05-20T10:05:34;29.20;32.00
49385;DHT22;36795;45.028;38.968;2023-05-20T10:18:12;28.80;32.50
49385;DHT22;36795;45.028;38.968;2023-05-20T10:21:00;29.00;32.20
49385;DHT22;36795;45.028;38.968;2023-05-20T10:23:47;29.30;31.90
49385;DHT22;36795;45.028;38.968;2023-05-20T10:26:37;29.60;32.10
49385;DHT22;36795;45.028;38.968;2023-05-20T10:29:23;29.90;31.70
49385;DHT22;36795;45.028;38.968;2023-05-20T10:32:10;29.80;31.70
49385;DHT22;36795;45.028;38.968;2023-05-20T10:35:01;29.60;32.00
49385;DHT22;36795;45.028;38.968;2023-05-20T10:37:50;29.70;32.10
49385;DHT22;36795;45.028;38.968;2023-05-20T10:40:36;29.70;32.10
49385;DHT22;36795;45.028;38.968;2023-05-20T10:43:26;29.40;32.10
49385;DHT22;36795;45.028;38.968;2023-05-20T10:46:19;29.00;32.30
49385;DHT22;36795;45.028;38.968;2023-05-20T10:49:05;28.60;32.90
49385;DHT22;36795;45.028;38.968;2023-05-20T10:52:02;28.40;33.10
49385;DHT22;36795;45.028;38.968;2023-05-20T10:54:59;28.00;33.70
49385;DHT22;36795;45.028;38.968;2023-05-20T10:57:46;27.80;34.10
49385;DHT22;36795;45.028;38.968;2023-05-20T11:00:35;27.50;34.30
49385;DHT22;36795;45.028;38.968;2023-05-20T11:03:22;27.30;34.70
49385;DHT22;36795;45.028;38.968;2023-05-20T11:06:16;27.20;34.90
49385;DHT22;36795;45.028;38.968;2023-05-20T11:09:03;27.10;35.10
49385;DHT22;36795;45.028;38.968;2023-05-20T11:11:52;27.10;35.30
49385;DHT22;36795;45.028;38.968;2023-05-20T11:14:39;27.00;35.30
49385;DHT22;36795;45.028;38.968;2023-05-20T11:17:25;27.10;35.40
49385;DHT22;36795;45.028;38.968;2023-05-20T11:20:13;27.10;35.40
49385;DHT22;36795;45.028;38.968;2023-05-20T11:23:00;27.20;35.40
49385;DHT22;36795;45.028;38.968;2023-05-20T11:25:49;27.10;35.30
49385;DHT22;36795;45.028;38.968;2023-05-20T11:28:35;27.10;35.60
49385;DHT22;36795;45.028;38.968;2023-05-20T11:31:21;27.00;35.80
49385;DHT22;36795;45.028;38.968;2023-05-20T11:34:09;27.20;36.00
49385;DHT22;36795;45.028;38.968;2023-05-20T11:36:56;27.20;35.80
49385;DHT22;36795;45.028;38.968;2023-05-20T11:39:42;27.30;36.00
49385;DHT22;36795;45.028;38.968;2023-05-20T11:42:29;27.40;36.00
49385;DHT22;36795;45.028;38.968;2023-05-20T11:45:17;27.40;36.50
49385;DHT22;36795;45.028;38.968;2023-05-20T11:48:04;27.40;36.00
49385;DHT22;36795;45.028;38.968;2023-05-20T11:50:52;27.40;35.80
49385;DHT22;36795;45.028;38.968;2023-05-20T11:53:39;27.40;35.50
49385;DHT22;36795;45.028;38.968;2023-05-20T11:56:28;27.60;35.60
49385;DHT22;36795;45.028;38.968;2023-05-20T11:59:15;27.70;35.60
49385;DHT22;36795;45.028;38.968;2023-05-20T12:02:01;27.70;35.50
49385;DHT22;36795;45.028;38.968;2023-05-20T12:04:48;27.70;35.30
49385;DHT22;36795;45.028;38.968;2023-05-20T12:07:33;27.70;35.20
49385;DHT22;36795;45.028;38.968;2023-05-20T12:10:21;27.50;35.30
49385;DHT22;36795;45.028;38.968;2023-05-20T12:13:07;27.50;35.50
49385;DHT22;36795;45.028;38.968;2023-05-20T12:15:55;27.60;35.40
49385;DHT22;36795;45.028;38.968;2023-05-20T12:18:41;27.60;35.20
49385;DHT22;36795;45.028;38.968;2023-05-20T12:21:31;27.80;35.10
49385;DHT22;36795;45.028;38.968;2023-05-20T12:24:16;28.40;34.60
49385;DHT22;36795;45.028;38.968;2023-05-20T12:27:03;28.80;34.00
49385;DHT22;36795;45.028;38.968;2023-05-20T12:29:50;28.70;34.10
49385;DHT22;36795;45.028;38.968;2023-05-20T12:32:37;28.60;34.20
49385;DHT22;36795;45.028;38.968;2023-05-20T12:35:40;28.60;34.10
49385;DHT22;36795;45.028;38.968;2023-05-20T12:38:26;28.90;33.60
49385;DHT22;36795;45.028;38.968;2023-05-20T12:41:12;29.10;33.40
49385;DHT22;36795;45.028;38.968;2023-05-20T12:43:58;29.30;33.30
49385;DHT22;36795;45.028;38.968;2023-05-20T12:46:46;29.70;32.80
49385;DHT22;36795;45.028;38.968;2023-05-20T12:49:32;29.70;32.70
49385;DHT22;36795;45.028;38.968;2023-05-20T12:52:18;29.40;33.20
49385;DHT22;36795;45.028;38.968;2023-05-20T12:55:04;29.10;33.60
49385;DHT22;36795;45.028;38.968;2023-05-20T12:57:57;28.90;33.70
49385;DHT22;36795;45.028;38.968;2023-05-20T13:00:44;28.70;34.00
49385;DHT22;36795;45.028;38.968;2023-05-20T13:03:30;28.60;34.10
49385;DHT22;36795;45.028;38.968;2023-05-20T13:06:16;28.50;34.00
49385;DHT22;36795;45.028;38.968;2023-05-20T13:09:02;28.20;34.40
49385;DHT22;36795;45.028;38.968;2023-05-20T13:11:49;28.20;34.60
49385;DHT22;36795;45.028;38.968;2023-05-20T13:14:34;28.00;34.70
49385;DHT22;36795;45.028;38.968;2023-05-20T13:17:21;28.00;34.70
49385;DHT22;36795;45.028;38.968;2023-05-20T13:20:07;27.90;34.70
49385;DHT22;36795;45.028;38.968;2023-05-20T13:22:54;27.80;34.90
49385;DHT22;36795;45.028;38.968;2023-05-20T13:25:39;27.90;35.00
49385;DHT22;36795;45.028;38.968;2023-05-20T13:28:26;28.00;34.80
49385;DHT22;36795;45.028;38.968;2023-05-20T13:31:13;28.00;34.80
49385;DHT22;36795;45.028;38.968;2023-05-20T13:33:59;27.90;34.90
49385;DHT22;36795;45.028;38.968;2023-05-20T13:36:45;27.90;34.80
49385;DHT22;36795;45.028;38.968;2023-05-20T13:39:32;27.80;34.90
49385;DHT22;36795;45.028;38.968;2023-05-20T13:42:18;27.90;35.10
49385;DHT22;36795;45.028;38.968;2023-05-20T13:45:05;28.20;35.00
49385;DHT22;36795;45.028;38.968;2023-05-20T13:47:51;28.30;34.80
49385;DHT22;36795;45.028;38.968;2023-05-20T13:50:38;28.20;34.80
49385;DHT22;36795;45.028;38.968;2023-05-20T13:53:24;28.00;34.80
49385;DHT22;36795;45.028;38.968;2023-05-20T13:56:10;28.10;34.70
49385;DHT22;36795;45.028;38.968;2023-05-20T13:58:56;28.10;34.70
49385;DHT22;36795;45.028;38.968;2023-05-20T14:01:43;28.10;34.80
49385;DHT22;36795;45.028;38.968;2023-05-20T14:04:30;28.00;35.10
49385;DHT22;36795;45.028;38.968;2023-05-20T14:07:16;27.80;35.30
49385;DHT22;36795;45.028;38.968;2023-05-20T14:10:02;27.70;35.80
49385;DHT22;36795;45.028;38.968;2023-05-20T14:12:47;27.50;36.00
49385;DHT22;36795;45.028;38.968;2023-05-20T14:15:34;27.50;36.20
49385;DHT22;36795;45.028;38.968;2023-05-20T14:18:20;27.40;36.50
49385;DHT22;36795;45.028;38.968;2023-05-20T14:21:06;27.30;36.70
49385;DHT22;36795;45.028;38.968;2023-05-20T14:23:52;27.20;36.80
49385;DHT22;36795;45.028;38.968;2023-05-20T14:26:38;27.20;37.10
49385;DHT22;36795;45.028;38.968;2023-05-20T14:29:24;27.10;37.20
49385;DHT22;36795;45.028;38.968;2023-05-20T14:32:10;26.90;37.30
49385;DHT22;36795;45.028;38.968;2023-05-20T14:34:57;26.90;37.40
49385;DHT22;36795;45.028;38.968;2023-05-20T14:37:44;26.90;37.50
49385;DHT22;36795;45.028;38.968;2023-05-20T14:40:30;26.80;37.60
49385;DHT22;36795;45.028;38.968;2023-05-20T14:43:16;26.80;37.80
49385;DHT22;36795;45.028;38.968;2023-05-20T14:46:02;26.80;37.80
49385;DHT22;36795;45.028;38.968;2023-05-20T14:48:49;26.80;37.90
49385;DHT22;36795;45.028;38.968;2023-05-20T14:51:35;26.70;37.90
49385;DHT22;36795;45.028;38.968;2023-05-20T14:54:21;26.60;38.00
49385;DHT22;36795;45.028;38.968;2023-05-20T14:57:09;26.60;38.20
49385;DHT22;36795;45.028;38.968;2023-05-20T14:59:56;26.60;38.50
49385;DHT22;36795;45.028;38.968;2023-05-20T15:02:41;26.60;38.60
49385;DHT22;36795;45.028;38.968;2023-05-20T15:05:27;26.50;38.60
49385;DHT22;36795;45.028;38.968;2023-05-20T15:08:13;26.40;38.80
49385;DHT22;36795;45.028;38.968;2023-05-20T15:10:59;26.40;38.90
49385;DHT22;36795;45.028;38.968;2023-05-20T15:13:45;26.40;38.80
49385;DHT22;36795;45.028;38.968;2023-05-20T15:16:33;26.40;38.70
49385;DHT22;36795;45.028;38.968;2023-05-20T15:19:19;26.30;38.60
49385;DHT22;36795;45.028;38.968;2023-05-20T15:22:05;26.20;38.50
49385;DHT22;36795;45.028;38.968;2023-05-20T15:24:51;26.10;38.70
49385;DHT22;36795;45.028;38.968;2023-05-20T15:27:40;26.10;38.60
49385;DHT22;36795;45.028;38.968;2023-05-20T15:30:28;26.10;38.60
49385;DHT22;36795;45.028;38.968;2023-05-20T15:33:15;26.00;38.60
49385;DHT22;36795;45.028;38.968;2023-05-20T15:36:01;25.90;38.80
49385;DHT22;36795;45.028;38.968;2023-05-20T15:38:47;25.90;38.70
49385;DHT22;36795;45.028;38.968;2023-05-20T15:41:33;25.80;38.80
49385;DHT22;36795;45.028;38.968;2023-05-20T15:44:19;25.70;38.80
49385;DHT22;36795;45.028;38.968;2023-05-20T15:47:05;25.70;38.90
49385;DHT22;36795;45.028;38.968;2023-05-20T15:49:51;25.70;38.90
49385;DHT22;36795;45.028;38.968;2023-05-20T15:52:38;25.70;39.00
49385;DHT22;36795;45.028;38.968;2023-05-20T15:55:24;25.60;38.90
49385;DHT22;36795;45.028;38.968;2023-05-20T15:58:11;25.60;39.10
49385;DHT22;36795;45.028;38.968;2023-05-20T16:00:57;25.60;39.10
49385;DHT22;36795;45.028;38.968;2023-05-20T16:03:45;25.60;39.10
49385;DHT22;36795;45.028;38.968;2023-05-20T16:06:30;25.60;39.20
49385;DHT22;36795;45.028;38.968;2023-05-20T16:09:17;25.50;39.20
49385;DHT22;36795;45.028;38.968;2023-05-20T16:12:03;25.50;39.20
49385;DHT22;36795;45.028;38.968;2023-05-20T16:14:51;25.40;39.40
49385;DHT22;36795;45.028;38.968;2023-05-20T16:17:37;25.40;39.70
49385;DHT22;36795;45.028;38.968;2023-05-20T16:20:23;25.30;39.40
49385;DHT22;36795;45.028;38.968;2023-05-20T16:23:09;25.30;39.40
49385;DHT22;36795;45.028;38.968;2023-05-20T16:25:55;25.30;39.50
49385;DHT22;36795;45.028;38.968;2023-05-20T16:28:41;25.20;39.60
49385;DHT22;36795;45.028;38.968;2023-05-20T16:31:27;25.20;40.00
49385;DHT22;36795;45.028;38.968;2023-05-20T16:34:13;25.10;40.20
49385;DHT22;36795;45.028;38.968;2023-05-20T16:37:01;25.10;40.50
49385;DHT22;36795;45.028;38.968;2023-05-20T16:39:46;25.00;40.80
49385;DHT22;36795;45.028;38.968;2023-05-20T16:42:33;25.00;41.00
49385;DHT22;36795;45.028;38.968;2023-05-20T16:45:18;24.90;41.30
49385;DHT22;36795;45.028;38.968;2023-05-20T16:48:05;24.80;41.50
49385;DHT22;36795;45.028;38.968;2023-05-20T16:50:51;24.70;41.70
49385;DHT22;36795;45.028;38.968;2023-05-20T16:53:37;24.70;41.90
49385;DHT22;36795;45.028;38.968;2023-05-20T16:56:23;24.60;42.20
49385;DHT22;36795;45.028;38.968;2023-05-20T16:59:10;24.50;42.40
49385;DHT22;36795;45.028;38.968;2023-05-20T17:01:59;24.50;42.40
49385;DHT22;36795;45.028;38.968;2023-05-20T17:04:45;24.50;42.40
49385;DHT22;36795;45.028;38.968;2023-05-20T17:07:31;24.40;42.50
49385;DHT22;36795;45.028;38.968;2023-05-20T17:10:18;24.30;42.60
49385;DHT22;36795;45.028;38.968;2023-05-20T17:13:04;24.30;42.80
49385;DHT22;36795;45.028;38.968;2023-05-20T17:15:51;24.20;42.90
49385;DHT22;36795;45.028;38.968;2023-05-20T17:18:36;24.20;42.90
49385;DHT22;36795;45.028;38.968;2023-05-20T17:21:23;24.20;43.00
49385;DHT22;36795;45.028;38.968;2023-05-20T17:24:08;24.20;43.20
49385;DHT22;36795;45.028;38.968;2023-05-20T17:26:55;24.10;43.20
49385;DHT22;36795;45.028;38.968;2023-05-20T17:29:41;24.10;43.30